sensor_id;sensor_type;location;lat;lon;timestamp;P1;durP1;ratioP1;P2;durP2;ratioP2
19673;SDS011;9986;50.610;7.230;2023-05-10T00:02:02;0.70;;;0.57;;
19673;SDS011;9986;50.610;7.230;2023-05-10T00:07:15;4.30;;;0.60;;
19673;SDS011;9986;50.610;7.230;2023-05-10T00:09:59;1.10;;;0.63;;
19673;SDS011;9986;50.610;7.230;2023-05-10T00:12:37;7.27;;;0.67;;
19673;SDS011;9986;50.610;7.230;2023-05-10T00:15:15;1.00;;;0.70;;
19673;SDS011;9986;50.610;7.230;2023-05-10T00:17:59;0.60;;;0.60;;
19673;SDS011;9986;50.610;7.230;2023-05-10T00:20:36;0.60;;;0.47;;
19673;SDS011;9986;50.610;7.230;2023-05-10T00:23:20;0.50;;;0.50;;
19673;SDS011;9986;50.610;7.230;2023-05-10T00:31:17;4.83;;;0.73;;
19673;SDS011;9986;50.610;7.230;2023-05-10T00:33:55;2.47;;;0.60;;
19673;SDS011;9986;50.610;7.230;2023-05-10T00:39:03;3.20;;;0.67;;
19673;SDS011;9986;50.610;7.230;2023-05-10T00:41:47;1.40;;;0.60;;
19673;SDS011;9986;50.610;7.230;2023-05-10T00:47:00;3.80;;;0.87;;
19673;SDS011;9986;50.610;7.230;2023-05-10T00:49:40;1.53;;;0.67;;
19673;SDS011;9986;50.610;7.230;2023-05-10T00:52:18;0.50;;;0.50;;
19673;SDS011;9986;50.610;7.230;2023-05-10T00:55:04;1.17;;;0.67;;
19673;SDS011;9986;50.610;7.230;2023-05-10T01:00:19;1.13;;;0.60;;
19673;SDS011;9986;50.610;7.230;2023-05-10T01:02:59;3.80;;;0.70;;
19673;SDS011;9986;50.610;7.230;2023-05-10T01:08:09;0.60;;;0.60;;
19673;SDS011;9986;50.610;7.230;2023-05-10T01:10:47;2.63;;;0.90;;
19673;SDS011;9986;50.610;7.230;2023-05-10T01:15:54;0.93;;;0.60;;
19673;SDS011;9986;50.610;7.230;2023-05-10T01:21:13;2.40;;;0.60;;
19673;SDS011;9986;50.610;7.230;2023-05-10T01:26:39;3.17;;;0.57;;
19673;SDS011;9986;50.610;7.230;2023-05-10T01:32:49;1.70;;;0.60;;
19673;SDS011;9986;50.610;7.230;2023-05-10T01:35:35;1.50;;;0.60;;
19673;SDS011;9986;50.610;7.230;2023-05-10T01:40:48;1.23;;;0.60;;
19673;SDS011;9986;50.610;7.230;2023-05-10T01:43:35;1.37;;;0.57;;
19673;SDS011;9986;50.610;7.230;2023-05-10T01:46:17;5.20;;;0.73;;
19673;SDS011;9986;50.610;7.230;2023-05-10T01:51:29;2.07;;;0.80;;
19673;SDS011;9986;50.610;7.230;2023-05-10T01:54:14;3.10;;;0.80;;
19673;SDS011;9986;50.610;7.230;2023-05-10T01:56:55;3.60;;;0.70;;
19673;SDS011;9986;50.610;7.230;2023-05-10T01:59:33;6.03;;;0.80;;
19673;SDS011;9986;50.610;7.230;2023-05-10T02:07:26;3.47;;;0.93;;
19673;SDS011;9986;50.610;7.230;2023-05-10T02:12:43;3.47;;;1.20;;
19673;SDS011;9986;50.610;7.230;2023-05-10T02:15:27;10.40;;;1.33;;
19673;SDS011;9986;50.610;7.230;2023-05-10T02:18:08;14.53;;;1.27;;
19673;SDS011;9986;50.610;7.230;2023-05-10T02:20:52;2.90;;;0.80;;
19673;SDS011;9986;50.610;7.230;2023-05-10T02:23:31;0.60;;;0.60;;
19673;SDS011;9986;50.610;7.230;2023-05-10T02:26:12;5.23;;;0.87;;
19673;SDS011;9986;50.610;7.230;2023-05-10T02:28:51;1.97;;;0.90;;
19673;SDS011;9986;50.610;7.230;2023-05-10T02:31:29;1.57;;;0.70;;
19673;SDS011;9986;50.610;7.230;2023-05-10T02:34:08;1.27;;;0.67;;
19673;SDS011;9986;50.610;7.230;2023-05-10T02:36:54;1.23;;;0.97;;
19673;SDS011;9986;50.610;7.230;2023-05-10T02:39:38;1.70;;;0.50;;
19673;SDS011;9986;50.610;7.230;2023-05-10T02:42:23;1.83;;;0.90;;
19673;SDS011;9986;50.610;7.230;2023-05-10T02:47:33;1.17;;;0.73;;
19673;SDS011;9986;50.610;7.230;2023-05-10T02:50:10;2.50;;;1.23;;
19673;SDS011;9986;50.610;7.230;2023-05-10T02:52:55;1.10;;;1.03;;
19673;SDS011;9986;50.610;7.230;2023-05-10T02:55:36;1.67;;;0.77;;
19673;SDS011;9986;50.610;7.230;2023-05-10T03:00:57;3.97;;;1.10;;
19673;SDS011;9986;50.610;7.230;2023-05-10T03:03:35;5.47;;;1.50;;
19673;SDS011;9986;50.610;7.230;2023-05-10T03:06:06;1.30;;;0.87;;
19673;SDS011;9986;50.610;7.230;2023-05-10T03:08:50;1.40;;;0.80;;
19673;SDS011;9986;50.610;7.230;2023-05-10T03:11:35;1.27;;;1.17;;
19673;SDS011;9986;50.610;7.230;2023-05-10T03:14:24;3.30;;;0.90;;
19673;SDS011;9986;50.610;7.230;2023-05-10T03:17:10;2.83;;;0.80;;
19673;SDS011;9986;50.610;7.230;2023-05-10T03:19:49;1.60;;;0.80;;
19673;SDS011;9986;50.610;7.230;2023-05-10T03:25:15;3.33;;;0.80;;
19673;SDS011;9986;50.610;7.230;2023-05-10T03:27:53;0.80;;;0.80;;
19673;SDS011;9986;50.610;7.230;2023-05-10T03:30:38;2.43;;;0.77;;
19673;SDS011;9986;50.610;7.230;2023-05-10T03:33:23;0.70;;;0.70;;
19673;SDS011;9986;50.610;7.230;2023-05-10T03:36:00;0.67;;;0.67;;
19673;SDS011;9986;50.610;7.230;2023-05-10T03:38:38;1.27;;;1.00;;
19673;SDS011;9986;50.610;7.230;2023-05-10T03:41:19;3.70;;;0.77;;
19673;SDS011;9986;50.610;7.230;2023-05-10T03:46:39;1.70;;;1.43;;
19673;SDS011;9986;50.610;7.230;2023-05-10T03:49:17;1.27;;;0.90;;
19673;SDS011;9986;50.610;7.230;2023-05-10T03:57:04;2.63;;;1.30;;
19673;SDS011;9986;50.610;7.230;2023-05-10T03:59:41;2.50;;;1.63;;
19673;SDS011;9986;50.610;7.230;2023-05-10T04:02:19;2.00;;;1.20;;
19673;SDS011;9986;50.610;7.230;2023-05-10T04:04:57;3.10;;;1.50;;
19673;SDS011;9986;50.610;7.230;2023-05-10T04:07:40;2.50;;;1.73;;
19673;SDS011;9986;50.610;7.230;2023-05-10T04:12:54;2.73;;;1.57;;
19673;SDS011;9986;50.610;7.230;2023-05-10T04:15:38;2.83;;;1.80;;
19673;SDS011;9986;50.610;7.230;2023-05-10T04:18:17;3.17;;;1.93;;
19673;SDS011;9986;50.610;7.230;2023-05-10T04:21:01;3.13;;;2.00;;
19673;SDS011;9986;50.610;7.230;2023-05-10T04:23:46;2.47;;;2.10;;
19673;SDS011;9986;50.610;7.230;2023-05-10T04:26:32;4.43;;;2.50;;
19673;SDS011;9986;50.610;7.230;2023-05-10T04:29:12;4.03;;;1.87;;
19673;SDS011;9986;50.610;7.230;2023-05-10T04:34:21;2.87;;;2.30;;
19673;SDS011;9986;50.610;7.230;2023-05-10T04:36:58;2.50;;;2.20;;
19673;SDS011;9986;50.610;7.230;2023-05-10T04:39:39;4.60;;;2.07;;
19673;SDS011;9986;50.610;7.230;2023-05-10T04:52:53;2.60;;;2.40;;
19673;SDS011;9986;50.610;7.230;2023-05-10T04:55:34;3.87;;;2.00;;
19673;SDS011;9986;50.610;7.230;2023-05-10T04:58:13;2.67;;;2.00;;
19673;SDS011;9986;50.610;7.230;2023-05-10T05:01:05;4.53;;;2.20;;
19673;SDS011;9986;50.610;7.230;2023-05-10T05:03:49;4.37;;;2.20;;
19673;SDS011;9986;50.610;7.230;2023-05-10T05:06:29;3.90;;;2.27;;
19673;SDS011;9986;50.610;7.230;2023-05-10T05:09:13;6.27;;;1.70;;
19673;SDS011;9986;50.610;7.230;2023-05-10T05:11:56;6.83;;;1.93;;
19673;SDS011;9986;50.610;7.230;2023-05-10T05:17:25;1.67;;;1.57;;
19673;SDS011;9986;50.610;7.230;2023-05-10T05:20:03;2.23;;;1.50;;
19673;SDS011;9986;50.610;7.230;2023-05-10T05:22:49;1.80;;;1.70;;
19673;SDS011;9986;50.610;7.230;2023-05-10T05:25:33;1.30;;;1.30;;
19673;SDS011;9986;50.610;7.230;2023-05-10T05:30:42;2.20;;;1.50;;
19673;SDS011;9986;50.610;7.230;2023-05-10T05:33:21;6.07;;;1.90;;
19673;SDS011;9986;50.610;7.230;2023-05-10T05:36:00;1.87;;;1.50;;
19673;SDS011;9986;50.610;7.230;2023-05-10T05:38:40;4.37;;;1.50;;
19673;SDS011;9986;50.610;7.230;2023-05-10T05:41:18;1.57;;;1.37;;
19673;SDS011;9986;50.610;7.230;2023-05-10T05:43:58;1.30;;;1.27;;
19673;SDS011;9986;50.610;7.230;2023-05-10T05:51:58;1.63;;;1.53;;
19673;SDS011;9986;50.610;7.230;2023-05-10T05:54:41;2.13;;;1.40;;
19673;SDS011;9986;50.610;7.230;2023-05-10T05:59:55;1.77;;;1.60;;
19673;SDS011;9986;50.610;7.230;2023-05-10T06:02:33;2.20;;;1.33;;
19673;SDS011;9986;50.610;7.230;2023-05-10T06:05:11;2.40;;;1.20;;
19673;SDS011;9986;50.610;7.230;2023-05-10T06:10:24;1.43;;;1.33;;
19673;SDS011;9986;50.610;7.230;2023-05-10T06:13:05;3.93;;;1.50;;
19673;SDS011;9986;50.610;7.230;2023-05-10T06:15:48;1.30;;;1.20;;
19673;SDS011;9986;50.610;7.230;2023-05-10T06:18:32;1.90;;;1.80;;
19673;SDS011;9986;50.610;7.230;2023-05-10T06:21:15;2.70;;;1.40;;
19673;SDS011;9986;50.610;7.230;2023-05-10T06:23:55;2.30;;;1.57;;
19673;SDS011;9986;50.610;7.230;2023-05-10T06:26:39;4.50;;;2.20;;
19673;SDS011;9986;50.610;7.230;2023-05-10T06:29:23;1.67;;;1.50;;
19673;SDS011;9986;50.610;7.230;2023-05-10T06:34:37;2.20;;;1.57;;
19673;SDS011;9986;50.610;7.230;2023-05-10T06:37:14;2.50;;;1.43;;
19673;SDS011;9986;50.610;7.230;2023-05-10T06:42:27;3.03;;;1.83;;
19673;SDS011;9986;50.610;7.230;2023-05-10T06:47:40;3.73;;;2.27;;
19673;SDS011;9986;50.610;7.230;2023-05-10T06:50:18;3.10;;;1.37;;
19673;SDS011;9986;50.610;7.230;2023-05-10T06:53:02;1.50;;;1.40;;
19673;SDS011;9986;50.610;7.230;2023-05-10T06:55:47;2.63;;;2.03;;
19673;SDS011;9986;50.610;7.230;2023-05-10T06:58:26;2.83;;;1.63;;
19673;SDS011;9986;50.610;7.230;2023-05-10T07:01:04;4.17;;;1.50;;
19673;SDS011;9986;50.610;7.230;2023-05-10T07:03:44;5.10;;;1.70;;
19673;SDS011;9986;50.610;7.230;2023-05-10T07:06:24;2.63;;;1.40;;
19673;SDS011;9986;50.610;7.230;2023-05-10T07:09:07;1.70;;;1.60;;
19673;SDS011;9986;50.610;7.230;2023-05-10T07:11:51;2.90;;;2.10;;
19673;SDS011;9986;50.610;7.230;2023-05-10T07:14:38;3.23;;;1.77;;
19673;SDS011;9986;50.610;7.230;2023-05-10T07:17:16;1.83;;;1.73;;
19673;SDS011;9986;50.610;7.230;2023-05-10T07:19:54;2.77;;;1.90;;
19673;SDS011;9986;50.610;7.230;2023-05-10T07:25:08;2.23;;;2.03;;
19673;SDS011;9986;50.610;7.230;2023-05-10T07:27:47;2.93;;;1.73;;
19673;SDS011;9986;50.610;7.230;2023-05-10T07:30:27;3.33;;;2.13;;
19673;SDS011;9986;50.610;7.230;2023-05-10T07:33:12;5.77;;;4.87;;
19673;SDS011;9986;50.610;7.230;2023-05-10T07:35:50;5.03;;;2.47;;
19673;SDS011;9986;50.610;7.230;2023-05-10T07:41:03;2.07;;;1.90;;
19673;SDS011;9986;50.610;7.230;2023-05-10T07:43:41;6.53;;;3.37;;
19673;SDS011;9986;50.610;7.230;2023-05-10T07:46:18;2.43;;;1.93;;
19673;SDS011;9986;50.610;7.230;2023-05-10T07:48:56;2.97;;;1.90;;
19673;SDS011;9986;50.610;7.230;2023-05-10T07:51:34;4.07;;;2.50;;
19673;SDS011;9986;50.610;7.230;2023-05-10T07:54:11;2.20;;;2.00;;
19673;SDS011;9986;50.610;7.230;2023-05-10T07:56:55;3.37;;;2.37;;
19673;SDS011;9986;50.610;7.230;2023-05-10T08:02:10;4.10;;;2.43;;
19673;SDS011;9986;50.610;7.230;2023-05-10T08:04:49;2.90;;;2.30;;
19673;SDS011;9986;50.610;7.230;2023-05-10T08:07:33;8.87;;;4.23;;
19673;SDS011;9986;50.610;7.230;2023-05-10T08:10:11;5.30;;;2.90;;
19673;SDS011;9986;50.610;7.230;2023-05-10T08:12:57;5.57;;;2.10;;
19673;SDS011;9986;50.610;7.230;2023-05-10T08:15:40;3.17;;;2.27;;
19673;SDS011;9986;50.610;7.230;2023-05-10T08:18:24;4.63;;;2.30;;
19673;SDS011;9986;50.610;7.230;2023-05-10T08:21:01;4.43;;;2.60;;
19673;SDS011;9986;50.610;7.230;2023-05-10T08:23:39;5.30;;;2.70;;
19673;SDS011;9986;50.610;7.230;2023-05-10T08:26:19;4.47;;;2.70;;
19673;SDS011;9986;50.610;7.230;2023-05-10T08:29:06;3.47;;;3.17;;
19673;SDS011;9986;50.610;7.230;2023-05-10T08:31:54;4.47;;;2.77;;
19673;SDS011;9986;50.610;7.230;2023-05-10T08:34:37;4.17;;;2.97;;
19673;SDS011;9986;50.610;7.230;2023-05-10T08:39:50;5.20;;;3.00;;
19673;SDS011;9986;50.610;7.230;2023-05-10T08:45:04;4.53;;;3.17;;
19673;SDS011;9986;50.610;7.230;2023-05-10T08:47:48;3.70;;;2.40;;
19673;SDS011;9986;50.610;7.230;2023-05-10T08:50:28;6.50;;;2.73;;
19673;SDS011;9986;50.610;7.230;2023-05-10T08:53:09;7.83;;;2.50;;
19673;SDS011;9986;50.610;7.230;2023-05-10T08:55:47;5.03;;;2.60;;
19673;SDS011;9986;50.610;7.230;2023-05-10T08:58:25;7.70;;;2.37;;
19673;SDS011;9986;50.610;7.230;2023-05-10T09:03:46;5.00;;;2.73;;
19673;SDS011;9986;50.610;7.230;2023-05-10T09:06:26;2.70;;;2.07;;
19673;SDS011;9986;50.610;7.230;2023-05-10T09:11:39;6.23;;;2.63;;
19673;SDS011;9986;50.610;7.230;2023-05-10T09:14:17;3.17;;;1.60;;
19673;SDS011;9986;50.610;7.230;2023-05-10T09:16:56;3.53;;;1.20;;
19673;SDS011;9986;50.610;7.230;2023-05-10T09:22:06;3.73;;;0.77;;
19673;SDS011;9986;50.610;7.230;2023-05-10T09:24:44;0.60;;;0.60;;
19673;SDS011;9986;50.610;7.230;2023-05-10T09:30:09;2.70;;;0.80;;
19673;SDS011;9986;50.610;7.230;2023-05-10T09:32:53;1.30;;;0.40;;
19673;SDS011;9986;50.610;7.230;2023-05-10T09:35:32;4.10;;;0.63;;
19673;SDS011;9986;50.610;7.230;2023-05-10T09:40:43;0.50;;;0.50;;
19673;SDS011;9986;50.610;7.230;2023-05-10T09:46:12;0.50;;;0.50;;
19673;SDS011;9986;50.610;7.230;2023-05-10T09:51:25;4.27;;;2.10;;
19673;SDS011;9986;50.610;7.230;2023-05-10T09:54:10;0.60;;;0.60;;
19673;SDS011;9986;50.610;7.230;2023-05-10T09:56:55;0.70;;;0.70;;
19673;SDS011;9986;50.610;7.230;2023-05-10T09:59:42;0.73;;;0.70;;
19673;SDS011;9986;50.610;7.230;2023-05-10T10:02:28;0.63;;;0.63;;
19673;SDS011;9986;50.610;7.230;2023-05-10T10:05:12;2.00;;;0.93;;
19673;SDS011;9986;50.610;7.230;2023-05-10T10:07:50;4.53;;;0.90;;
19673;SDS011;9986;50.610;7.230;2023-05-10T10:13:04;1.87;;;0.60;;
19673;SDS011;9986;50.610;7.230;2023-05-10T10:15:46;3.43;;;0.70;;
19673;SDS011;9986;50.610;7.230;2023-05-10T10:18:24;1.50;;;0.90;;
19673;SDS011;9986;50.610;7.230;2023-05-10T10:21:02;0.60;;;0.60;;
19673;SDS011;9986;50.610;7.230;2023-05-10T10:26:11;0.47;;;0.43;;
19673;SDS011;9986;50.610;7.230;2023-05-10T10:29:00;1.13;;;0.80;;
19673;SDS011;9986;50.610;7.230;2023-05-10T10:31:39;2.20;;;0.70;;
19673;SDS011;9986;50.610;7.230;2023-05-10T10:37:03;0.70;;;0.70;;
19673;SDS011;9986;50.610;7.230;2023-05-10T10:39:40;0.80;;;0.80;;
19673;SDS011;9986;50.610;7.230;2023-05-10T10:45:21;1.70;;;0.70;;
19673;SDS011;9986;50.610;7.230;2023-05-10T10:48:21;0.67;;;0.67;;
19673;SDS011;9986;50.610;7.230;2023-05-10T10:51:01;0.60;;;0.60;;
19673;SDS011;9986;50.610;7.230;2023-05-10T10:53:39;5.43;;;0.90;;
19673;SDS011;9986;50.610;7.230;2023-05-10T10:56:23;1.33;;;0.80;;
19673;SDS011;9986;50.610;7.230;2023-05-10T11:01:36;0.70;;;0.70;;
19673;SDS011;9986;50.610;7.230;2023-05-10T11:04:19;0.60;;;0.60;;
19673;SDS011;9986;50.610;7.230;2023-05-10T11:10:04;0.70;;;0.70;;
19673;SDS011;9986;50.610;7.230;2023-05-10T11:12:51;2.77;;;0.70;;
19673;SDS011;9986;50.610;7.230;2023-05-10T11:15:30;1.37;;;0.60;;
19673;SDS011;9986;50.610;7.230;2023-05-10T11:18:17;0.97;;;0.80;;
19673;SDS011;9986;50.610;7.230;2023-05-10T11:23:31;0.60;;;0.60;;
19673;SDS011;9986;50.610;7.230;2023-05-10T11:26:09;1.07;;;0.60;;
19673;SDS011;9986;50.610;7.230;2023-05-10T11:28:47;0.97;;;0.90;;
19673;SDS011;9986;50.610;7.230;2023-05-10T11:31:31;1.67;;;1.53;;
19673;SDS011;9986;50.610;7.230;2023-05-10T11:34:23;0.60;;;0.60;;
19673;SDS011;9986;50.610;7.230;2023-05-10T11:37:07;2.93;;;0.73;;
19673;SDS011;9986;50.610;7.230;2023-05-10T11:39:47;0.70;;;0.70;;
19673;SDS011;9986;50.610;7.230;2023-05-10T11:42:31;0.87;;;0.70;;
19673;SDS011;9986;50.610;7.230;2023-05-10T11:47:49;0.67;;;0.60;;
19673;SDS011;9986;50.610;7.230;2023-05-10T11:50:36;1.53;;;1.07;;
19673;SDS011;9986;50.610;7.230;2023-05-10T11:53:15;1.47;;;0.80;;
19673;SDS011;9986;50.610;7.230;2023-05-10T11:56:03;0.70;;;0.70;;
19673;SDS011;9986;50.610;7.230;2023-05-10T11:58:44;8.63;;;2.40;;
19673;SDS011;9986;50.610;7.230;2023-05-10T12:04:10;3.33;;;0.77;;
19673;SDS011;9986;50.610;7.230;2023-05-10T12:09:19;1.10;;;0.80;;
19673;SDS011;9986;50.610;7.230;2023-05-10T12:14:29;3.97;;;0.93;;
19673;SDS011;9986;50.610;7.230;2023-05-10T12:19:51;7.80;;;1.00;;
19673;SDS011;9986;50.610;7.230;2023-05-10T12:22:34;0.90;;;0.80;;
19673;SDS011;9986;50.610;7.230;2023-05-10T12:27:50;2.90;;;0.80;;
19673;SDS011;9986;50.610;7.230;2023-05-10T12:30:31;7.10;;;0.90;;
19673;SDS011;9986;50.610;7.230;2023-05-10T12:33:09;0.93;;;0.57;;
19673;SDS011;9986;50.610;7.230;2023-05-10T12:35:48;1.60;;;1.20;;
19673;SDS011;9986;50.610;7.230;2023-05-10T12:41:08;3.00;;;0.70;;
19673;SDS011;9986;50.610;7.230;2023-05-10T12:43:47;1.73;;;0.80;;
19673;SDS011;9986;50.610;7.230;2023-05-10T12:46:28;0.73;;;0.73;;
19673;SDS011;9986;50.610;7.230;2023-05-10T12:51:54;1.87;;;0.80;;
19673;SDS011;9986;50.610;7.230;2023-05-10T12:57:10;1.47;;;1.30;;
19673;SDS011;9986;50.610;7.230;2023-05-10T12:59:48;3.00;;;0.77;;
19673;SDS011;9986;50.610;7.230;2023-05-10T13:02:27;1.93;;;0.80;;
19673;SDS011;9986;50.610;7.230;2023-05-10T13:05:11;2.27;;;2.07;;
19673;SDS011;9986;50.610;7.230;2023-05-10T13:10:26;2.33;;;0.70;;
19673;SDS011;9986;50.610;7.230;2023-05-10T13:13:03;2.63;;;0.87;;
19673;SDS011;9986;50.610;7.230;2023-05-10T13:15:43;1.47;;;0.70;;
19673;SDS011;9986;50.610;7.230;2023-05-10T13:18:20;0.70;;;0.70;;
19673;SDS011;9986;50.610;7.230;2023-05-10T13:20:58;2.37;;;0.83;;
19673;SDS011;9986;50.610;7.230;2023-05-10T13:28:54;0.90;;;0.90;;
19673;SDS011;9986;50.610;7.230;2023-05-10T13:31:35;0.57;;;0.57;;
19673;SDS011;9986;50.610;7.230;2023-05-10T13:34:13;1.50;;;0.50;;
19673;SDS011;9986;50.610;7.230;2023-05-10T13:36:50;2.53;;;0.70;;
19673;SDS011;9986;50.610;7.230;2023-05-10T13:39:28;1.03;;;0.80;;
19673;SDS011;9986;50.610;7.230;2023-05-10T13:44:48;2.07;;;1.13;;
19673;SDS011;9986;50.610;7.230;2023-05-10T13:47:26;4.03;;;0.77;;
19673;SDS011;9986;50.610;7.230;2023-05-10T13:50:05;4.77;;;1.00;;
19673;SDS011;9986;50.610;7.230;2023-05-10T13:52:43;1.70;;;0.80;;
19673;SDS011;9986;50.610;7.230;2023-05-10T13:55:33;1.67;;;1.00;;
19673;SDS011;9986;50.610;7.230;2023-05-10T13:58:17;1.40;;;1.30;;
19673;SDS011;9986;50.610;7.230;2023-05-10T14:00:57;2.47;;;0.80;;
19673;SDS011;9986;50.610;7.230;2023-05-10T14:03:41;2.23;;;1.03;;
19673;SDS011;9986;50.610;7.230;2023-05-10T14:06:21;6.30;;;1.07;;
19673;SDS011;9986;50.610;7.230;2023-05-10T14:09:05;0.80;;;0.80;;
19673;SDS011;9986;50.610;7.230;2023-05-10T14:11:43;0.83;;;0.80;;
19673;SDS011;9986;50.610;7.230;2023-05-10T14:14:21;2.00;;;0.97;;
19673;SDS011;9986;50.610;7.230;2023-05-10T14:17:04;3.13;;;1.00;;
19673;SDS011;9986;50.610;7.230;2023-05-10T14:27:47;5.43;;;1.90;;
19673;SDS011;9986;50.610;7.230;2023-05-10T14:33:01;2.40;;;0.83;;
19673;SDS011;9986;50.610;7.230;2023-05-10T14:35:39;5.27;;;1.00;;
19673;SDS011;9986;50.610;7.230;2023-05-10T14:38:19;0.80;;;0.70;;
19673;SDS011;9986;50.610;7.230;2023-05-10T14:41:03;5.93;;;0.93;;
19673;SDS011;9986;50.610;7.230;2023-05-10T14:46:25;0.60;;;0.60;;
19673;SDS011;9986;50.610;7.230;2023-05-10T14:49:02;0.67;;;0.53;;
19673;SDS011;9986;50.610;7.230;2023-05-10T14:51:46;1.80;;;0.60;;
19673;SDS011;9986;50.610;7.230;2023-05-10T14:54:33;1.53;;;0.70;;
19673;SDS011;9986;50.610;7.230;2023-05-10T14:57:11;1.03;;;0.60;;
19673;SDS011;9986;50.610;7.230;2023-05-10T15:02:28;0.70;;;0.60;;
19673;SDS011;9986;50.610;7.230;2023-05-10T15:05:14;2.30;;;0.60;;
19673;SDS011;9986;50.610;7.230;2023-05-10T15:07:51;0.40;;;0.40;;
19673;SDS011;9986;50.610;7.230;2023-05-10T15:10:32;0.30;;;0.30;;
19673;SDS011;9986;50.610;7.230;2023-05-10T15:13:10;2.30;;;0.30;;
19673;SDS011;9986;50.610;7.230;2023-05-10T15:15:52;8.30;;;0.70;;
19673;SDS011;9986;50.610;7.230;2023-05-10T15:18:35;1.37;;;0.30;;
19673;SDS011;9986;50.610;7.230;2023-05-10T15:21:19;2.30;;;0.40;;
19673;SDS011;9986;50.610;7.230;2023-05-10T15:24:03;1.10;;;0.30;;
19673;SDS011;9986;50.610;7.230;2023-05-10T15:26:47;2.47;;;0.50;;
19673;SDS011;9986;50.610;7.230;2023-05-10T15:29:27;1.90;;;0.40;;
19673;SDS011;9986;50.610;7.230;2023-05-10T15:32:11;2.23;;;0.43;;
19673;SDS011;9986;50.610;7.230;2023-05-10T15:34:56;2.30;;;0.40;;
19673;SDS011;9986;50.610;7.230;2023-05-10T15:37:40;1.23;;;0.43;;
19673;SDS011;9986;50.610;7.230;2023-05-10T15:40:23;0.97;;;0.40;;
19673;SDS011;9986;50.610;7.230;2023-05-10T15:43:01;2.70;;;0.40;;
19673;SDS011;9986;50.610;7.230;2023-05-10T15:45:45;0.30;;;0.30;;
19673;SDS011;9986;50.610;7.230;2023-05-10T15:48:22;0.30;;;0.30;;
19673;SDS011;9986;50.610;7.230;2023-05-10T15:51:06;0.40;;;0.40;;
19673;SDS011;9986;50.610;7.230;2023-05-10T15:53:50;0.40;;;0.40;;
19673;SDS011;9986;50.610;7.230;2023-05-10T15:56:27;1.17;;;0.60;;
19673;SDS011;9986;50.610;7.230;2023-05-10T16:01:40;4.80;;;0.60;;
19673;SDS011;9986;50.610;7.230;2023-05-10T16:07:06;0.50;;;0.50;;
19673;SDS011;9986;50.610;7.230;2023-05-10T16:12:34;2.83;;;0.90;;
19673;SDS011;9986;50.610;7.230;2023-05-10T16:15:14;1.70;;;0.53;;
19673;SDS011;9986;50.610;7.230;2023-05-10T16:20:33;5.50;;;1.33;;
19673;SDS011;9986;50.610;7.230;2023-05-10T16:23:13;1.20;;;0.60;;
19673;SDS011;9986;50.610;7.230;2023-05-10T16:25:57;1.10;;;0.80;;
19673;SDS011;9986;50.610;7.230;2023-05-10T16:28:38;1.37;;;0.50;;
19673;SDS011;9986;50.610;7.230;2023-05-10T16:31:21;0.67;;;0.67;;
19673;SDS011;9986;50.610;7.230;2023-05-10T16:33:52;0.73;;;0.63;;
19673;SDS011;9986;50.610;7.230;2023-05-10T16:36:39;3.20;;;0.60;;
19673;SDS011;9986;50.610;7.230;2023-05-10T16:39:17;4.63;;;0.70;;
19673;SDS011;9986;50.610;7.230;2023-05-10T16:42:01;0.80;;;0.67;;
19673;SDS011;9986;50.610;7.230;2023-05-10T16:44:45;2.50;;;0.90;;
19673;SDS011;9986;50.610;7.230;2023-05-10T16:47:25;1.90;;;0.97;;
19673;SDS011;9986;50.610;7.230;2023-05-10T16:50:06;2.03;;;0.67;;
19673;SDS011;9986;50.610;7.230;2023-05-10T16:52:44;1.30;;;1.20;;
19673;SDS011;9986;50.610;7.230;2023-05-10T16:55:24;3.47;;;1.03;;
19673;SDS011;9986;50.610;7.230;2023-05-10T17:00:44;4.80;;;1.27;;
19673;SDS011;9986;50.610;7.230;2023-05-10T17:05:53;0.80;;;0.80;;
19673;SDS011;9986;50.610;7.230;2023-05-10T17:11:04;0.87;;;0.77;;
19673;SDS011;9986;50.610;7.230;2023-05-10T17:13:44;3.37;;;0.97;;
19673;SDS011;9986;50.610;7.230;2023-05-10T17:16:24;5.60;;;0.83;;
19673;SDS011;9986;50.610;7.230;2023-05-10T17:21:43;3.67;;;1.70;;
19673;SDS011;9986;50.610;7.230;2023-05-10T17:24:23;2.63;;;0.90;;
19673;SDS011;9986;50.610;7.230;2023-05-10T17:29:32;2.27;;;1.00;;
19673;SDS011;9986;50.610;7.230;2023-05-10T17:32:16;1.67;;;0.80;;
19673;SDS011;9986;50.610;7.230;2023-05-10T17:35:00;1.60;;;0.80;;
19673;SDS011;9986;50.610;7.230;2023-05-10T17:37:47;1.43;;;0.87;;
19673;SDS011;9986;50.610;7.230;2023-05-10T17:40:31;2.03;;;0.90;;
19673;SDS011;9986;50.610;7.230;2023-05-10T17:45:48;2.20;;;1.07;;
19673;SDS011;9986;50.610;7.230;2023-05-10T17:48:28;3.87;;;1.23;;
19673;SDS011;9986;50.610;7.230;2023-05-10T17:51:06;6.63;;;1.03;;
19673;SDS011;9986;50.610;7.230;2023-05-10T17:53:43;2.43;;;1.30;;
19673;SDS011;9986;50.610;7.230;2023-05-10T17:56:21;1.40;;;1.30;;
19673;SDS011;9986;50.610;7.230;2023-05-10T17:59:02;7.57;;;1.40;;
19673;SDS011;9986;50.610;7.230;2023-05-10T18:01:42;1.10;;;1.10;;
19673;SDS011;9986;50.610;7.230;2023-05-10T18:04:23;4.13;;;1.53;;
19673;SDS011;9986;50.610;7.230;2023-05-10T18:07:00;2.00;;;1.00;;
19673;SDS011;9986;50.610;7.230;2023-05-10T18:09:45;2.43;;;1.13;;
19673;SDS011;9986;50.610;7.230;2023-05-10T18:14:59;1.47;;;1.37;;
19673;SDS011;9986;50.610;7.230;2023-05-10T18:17:39;1.63;;;1.40;;
19673;SDS011;9986;50.610;7.230;2023-05-10T18:20:26;2.30;;;1.13;;
19673;SDS011;9986;50.610;7.230;2023-05-10T18:23:06;3.90;;;1.53;;
19673;SDS011;9986;50.610;7.230;2023-05-10T18:25:46;6.13;;;1.50;;
19673;SDS011;9986;50.610;7.230;2023-05-10T18:33:41;1.90;;;1.50;;
19673;SDS011;9986;50.610;7.230;2023-05-10T18:36:27;1.53;;;1.30;;
19673;SDS011;9986;50.610;7.230;2023-05-10T18:39:15;2.57;;;1.43;;
19673;SDS011;9986;50.610;7.230;2023-05-10T18:44:38;4.73;;;1.70;;
19673;SDS011;9986;50.610;7.230;2023-05-10T18:47:17;5.20;;;1.50;;
19673;SDS011;9986;50.610;7.230;2023-05-10T18:49:58;6.00;;;1.73;;
19673;SDS011;9986;50.610;7.230;2023-05-10T18:52:39;22.33;;;2.43;;
19673;SDS011;9986;50.610;7.230;2023-05-10T18:55:17;4.53;;;1.30;;
19673;SDS011;9986;50.610;7.230;2023-05-10T18:58:01;1.50;;;1.10;;
19673;SDS011;9986;50.610;7.230;2023-05-10T19:03:09;4.33;;;1.20;;
19673;SDS011;9986;50.610;7.230;2023-05-10T19:05:47;5.23;;;1.60;;
19673;SDS011;9986;50.610;7.230;2023-05-10T19:08:28;3.73;;;1.40;;
19673;SDS011;9986;50.610;7.230;2023-05-10T19:11:09;1.20;;;1.20;;
19673;SDS011;9986;50.610;7.230;2023-05-10T19:13:49;1.40;;;1.30;;
19673;SDS011;9986;50.610;7.230;2023-05-10T19:18:59;2.30;;;1.30;;
19673;SDS011;9986;50.610;7.230;2023-05-10T19:21:42;2.73;;;1.43;;
19673;SDS011;9986;50.610;7.230;2023-05-10T19:24:22;1.40;;;1.30;;
19673;SDS011;9986;50.610;7.230;2023-05-10T19:27:03;1.90;;;1.50;;
19673;SDS011;9986;50.610;7.230;2023-05-10T19:29:47;5.90;;;2.00;;
19673;SDS011;9986;50.610;7.230;2023-05-10T19:32:30;4.77;;;2.43;;
19673;SDS011;9986;50.610;7.230;2023-05-10T19:35:15;4.33;;;1.70;;
19673;SDS011;9986;50.610;7.230;2023-05-10T19:37:59;2.50;;;2.10;;
19673;SDS011;9986;50.610;7.230;2023-05-10T19:40:43;2.20;;;2.00;;
19673;SDS011;9986;50.610;7.230;2023-05-10T19:45:57;4.13;;;1.73;;
19673;SDS011;9986;50.610;7.230;2023-05-10T19:48:38;3.10;;;1.73;;
19673;SDS011;9986;50.610;7.230;2023-05-10T19:51:18;1.80;;;1.70;;
19673;SDS011;9986;50.610;7.230;2023-05-10T19:56:31;2.90;;;2.00;;
19673;SDS011;9986;50.610;7.230;2023-05-10T19:59:08;2.67;;;1.77;;
19673;SDS011;9986;50.610;7.230;2023-05-10T20:04:22;1.70;;;1.60;;
19673;SDS011;9986;50.610;7.230;2023-05-10T20:07:00;2.43;;;1.80;;
19673;SDS011;9986;50.610;7.230;2023-05-10T20:09:41;3.60;;;2.13;;
19673;SDS011;9986;50.610;7.230;2023-05-10T20:12:21;4.97;;;2.10;;
19673;SDS011;9986;50.610;7.230;2023-05-10T20:15:08;4.27;;;2.47;;
19673;SDS011;9986;50.610;7.230;2023-05-10T20:17:52;2.77;;;1.90;;
19673;SDS011;9986;50.610;7.230;2023-05-10T20:25:41;2.90;;;2.63;;
19673;SDS011;9986;50.610;7.230;2023-05-10T20:28:26;5.37;;;2.27;;
19673;SDS011;9986;50.610;7.230;2023-05-10T20:31:10;2.50;;;2.20;;
19673;SDS011;9986;50.610;7.230;2023-05-10T20:33:54;5.50;;;2.53;;
19673;SDS011;9986;50.610;7.230;2023-05-10T20:36:38;1.90;;;1.80;;